sensor_id;sensor_type;location;lat;lon;timestamp;P1;durP1;ratioP1;P2;durP2;ratioP2
45314;SDS011;31051;51.540;5.852;2024-01-16T00:03:30;7.1;;;4.4;;
45314;SDS011;31051;51.540;5.852;2024-01-16T00:16:06;7.0;;;4.3;;
45314;SDS011;31051;51.540;5.852;2024-01-16T00:28:41;6.3;;;4.3;;
45314;SDS011;31051;51.540;5.852;2024-01-16T00:41:17;4.8;;;4.1;;
45314;SDS011;31051;51.540;5.852;2024-01-16T00:53:53;5.4;;;3.9;;
45314;SDS011;31051;51.540;5.852;2024-01-16T01:06:28;4.8;;;3.6;;
45314;SDS011;31051;51.540;5.852;2024-01-16T01:19:04;6.2;;;4.2;;
45314;SDS011;31051;51.540;5.852;2024-01-16T01:31:40;4.9;;;3.4;;
45314;SDS011;31051;51.540;5.852;2024-01-16T01:44:16;4.3;;;2.7;;
45314;SDS011;31051;51.540;5.852;2024-01-16T01:56:51;5.2;;;3.3;;
45314;SDS011;31051;51.540;5.852;2024-01-16T02:09:27;6.4;;;4.3;;
45314;SDS011;31051;51.540;5.852;2024-01-16T02:22:03;7.6;;;4.6;;
45314;SDS011;31051;51.540;5.852;2024-01-16T02:34:38;6.2;;;4.4;;
45314;SDS011;31051;51.540;5.852;2024-01-16T02:47:14;7.7;;;3.9;;
45314;SDS011;31051;51.540;5.852;2024-01-16T02:59:50;4.6;;;2.8;;
45314;SDS011;31051;51.540;5.852;2024-01-16T03:12:25;5.0;;;2.3;;
45314;SDS011;31051;51.540;5.852;2024-01-16T03:25:00;4.0;;;2.0;;
45314;SDS011;31051;51.540;5.852;2024-01-16T03:37:36;4.0;;;2.0;;
45314;SDS011;31051;51.540;5.852;2024-01-16T03:50:11;4.1;;;2.0;;
45314;SDS011;31051;51.540;5.852;2024-01-16T04:02:47;4.1;;;1.8;;
45314;SDS011;31051;51.540;5.852;2024-01-16T04:15:23;4.1;;;1.9;;
45314;SDS011;31051;51.540;5.852;2024-01-16T04:27:59;5.9;;;2.4;;
45314;SDS011;31051;51.540;5.852;2024-01-16T04:40:34;11.0;;;8.1;;
45314;SDS011;31051;51.540;5.852;2024-01-16T04:53:10;12.6;;;9.8;;
45314;SDS011;31051;51.540;5.852;2024-01-16T05:05:46;12.4;;;9.8;;
45314;SDS011;31051;51.540;5.852;2024-01-16T05:18:21;11.4;;;9.4;;
45314;SDS011;31051;51.540;5.852;2024-01-16T05:30:57;12.2;;;9.0;;
45314;SDS011;31051;51.540;5.852;2024-01-16T05:43:33;12.6;;;7.7;;
45314;SDS011;31051;51.540;5.852;2024-01-16T05:56:08;10.9;;;6.6;;
45314;SDS011;31051;51.540;5.852;2024-01-16T06:08:44;11.3;;;6.0;;
45314;SDS011;31051;51.540;5.852;2024-01-16T06:21:20;10.8;;;5.1;;
45314;SDS011;31051;51.540;5.852;2024-01-16T06:33:55;9.4;;;4.7;;
45314;SDS011;31051;51.540;5.852;2024-01-16T06:46:31;9.5;;;4.5;;
45314;SDS011;31051;51.540;5.852;2024-01-16T06:59:07;9.4;;;4.0;;
45314;SDS011;31051;51.540;5.852;2024-01-16T07:11:42;9.4;;;3.9;;
45314;SDS011;31051;51.540;5.852;2024-01-16T07:24:18;7.4;;;3.6;;
45314;SDS011;31051;51.540;5.852;2024-01-16T07:36:54;6.4;;;3.4;;
45314;SDS011;31051;51.540;5.852;2024-01-16T07:49:29;6.8;;;3.4;;
45314;SDS011;31051;51.540;5.852;2024-01-16T08:02:05;7.1;;;3.3;;
45314;SDS011;31051;51.540;5.852;2024-01-16T08:14:41;7.0;;;3.4;;
45314;SDS011;31051;51.540;5.852;2024-01-16T08:27:16;6.2;;;3.5;;
45314;SDS011;31051;51.540;5.852;2024-01-16T08:39:52;7.9;;;3.7;;
45314;SDS011;31051;51.540;5.852;2024-01-16T08:52:28;7.8;;;3.8;;
45314;SDS011;31051;51.540;5.852;2024-01-16T09:05:03;7.3;;;3.9;;
45314;SDS011;31051;51.540;5.852;2024-01-16T09:17:39;7.5;;;3.9;;
45314;SDS011;31051;51.540;5.852;2024-01-16T09:30:15;7.0;;;3.5;;
45314;SDS011;31051;51.540;5.852;2024-01-16T09:42:50;7.0;;;3.5;;
45314;SDS011;31051;51.540;5.852;2024-01-16T09:55:26;5.9;;;3.5;;
45314;SDS011;31051;51.540;5.852;2024-01-16T10:08:02;6.5;;;3.6;;
45314;SDS011;31051;51.540;5.852;2024-01-16T10:20:37;7.0;;;3.6;;
45314;SDS011;31051;51.540;5.852;2024-01-16T10:33:13;7.1;;;3.8;;
45314;SDS011;31051;51.540;5.852;2024-01-16T10:45:49;7.1;;;3.9;;
45314;SDS011;31051;51.540;5.852;2024-01-16T10:58:25;7.2;;;3.8;;
45314;SDS011;31051;51.540;5.852;2024-01-16T11:11:00;7.3;;;3.8;;
45314;SDS011;31051;51.540;5.852;2024-01-16T11:23:36;7.6;;;3.9;;
45314;SDS011;31051;51.540;5.852;2024-01-16T11:36:12;6.2;;;3.8;;
45314;SDS011;31051;51.540;5.852;2024-01-16T11:48:47;6.0;;;3.7;;
45314;SDS011;31051;51.540;5.852;2024-01-16T12:01:23;6.3;;;3.7;;
45314;SDS011;31051;51.540;5.852;2024-01-16T12:13:59;6.7;;;3.9;;
45314;SDS011;31051;51.540;5.852;2024-01-16T12:26:34;6.5;;;3.6;;
45314;SDS011;31051;51.540;5.852;2024-01-16T12:39:10;6.2;;;3.5;;
45314;SDS011;31051;51.540;5.852;2024-01-16T12:51:46;5.6;;;3.5;;
45314;SDS011;31051;51.540;5.852;2024-01-16T13:04:22;5.4;;;3.7;;
45314;SDS011;31051;51.540;5.852;2024-01-16T13:16:57;5.9;;;3.5;;
45314;SDS011;31051;51.540;5.852;2024-01-16T13:29:33;6.2;;;3.6;;
45314;SDS011;31051;51.540;5.852;2024-01-16T13:42:09;6.4;;;3.7;;
45314;SDS011;31051;51.540;5.852;2024-01-16T13:54:44;5.3;;;3.6;;
45314;SDS011;31051;51.540;5.852;2024-01-16T14:07:20;5.0;;;3.2;;
45314;SDS011;31051;51.540;5.852;2024-01-16T14:19:56;5.8;;;3.4;;
45314;SDS011;31051;51.540;5.852;2024-01-16T14:32:31;5.9;;;3.5;;
45314;SDS011;31051;51.540;5.852;2024-01-16T14:45:07;5.7;;;3.3;;
45314;SDS011;31051;51.540;5.852;2024-01-16T14:57:43;5.7;;;3.3;;
45314;SDS011;31051;51.540;5.852;2024-01-16T15:10:19;5.9;;;3.2;;
45314;SDS011;31051;51.540;5.852;2024-01-16T15:22:54;6.2;;;3.4;;
45314;SDS011;31051;51.540;5.852;2024-01-16T15:35:30;4.8;;;3.2;;
45314;SDS011;31051;51.540;5.852;2024-01-16T15:48:06;5.7;;;3.2;;
45314;SDS011;31051;51.540;5.852;2024-01-16T16:00:41;5.9;;;3.2;;
45314;SDS011;31051;51.540;5.852;2024-01-16T16:13:17;6.1;;;3.3;;
45314;SDS011;31051;51.540;5.852;2024-01-16T16:25:53;5.6;;;3.3;;
45314;SDS011;31051;51.540;5.852;2024-01-16T16:38:28;5.2;;;3.3;;
45314;SDS011;31051;51.540;5.852;2024-01-16T16:51:04;7.1;;;4.3;;
45314;SDS011;31051;51.540;5.852;2024-01-16T17:03:40;6.6;;;3.9;;
45314;SDS011;31051;51.540;5.852;2024-01-16T17:16:15;6.5;;;3.8;;
45314;SDS011;31051;51.540;5.852;2024-01-16T17:28:51;6.1;;;3.7;;
45314;SDS011;31051;51.540;5.852;2024-01-16T17:41:27;7.2;;;3.7;;
45314;SDS011;31051;51.540;5.852;2024-01-16T17:54:02;7.1;;;4.0;;
45314;SDS011;31051;51.540;5.852;2024-01-16T18:06:38;6.8;;;4.1;;
45314;SDS011;31051;51.540;5.852;2024-01-16T18:19:14;8.2;;;4.3;;
45314;SDS011;31051;51.540;5.852;2024-01-16T18:31:49;7.8;;;4.2;;
45314;SDS011;31051;51.540;5.852;2024-01-16T18:44:25;6.9;;;4.0;;
45314;SDS011;31051;51.540;5.852;2024-01-16T18:57:01;7.5;;;4.0;;
45314;SDS011;31051;51.540;5.852;2024-01-16T19:09:36;7.0;;;4.4;;
45314;SDS011;31051;51.540;5.852;2024-01-16T19:22:12;9.0;;;4.6;;
45314;SDS011;31051;51.540;5.852;2024-01-16T19:34:48;7.7;;;4.6;;
45314;SDS011;31051;51.540;5.852;2024-01-16T19:47:23;7.5;;;4.7;;
45314;SDS011;31051;51.540;5.852;2024-01-16T19:59:59;9.7;;;5.1;;
45314;SDS011;31051;51.540;5.852;2024-01-16T20:12:35;9.1;;;5.3;;
45314;SDS011;31051;51.540;5.852;2024-01-16T20:25:10;8.3;;;5.3;;
45314;SDS011;31051;51.540;5.852;2024-01-16T20:37:46;9.3;;;5.6;;
45314;SDS011;31051;51.540;5.852;2024-01-16T20:50:22;9.0;;;5.6;;
45314;SDS011;31051;51.540;5.852;2024-01-16T21:02:57;8.9;;;5.6;;
45314;SDS011;31051;51.540;5.852;2024-01-16T21:15:33;7.7;;;5.5;;
45314;SDS011;31051;51.540;5.852;2024-01-16T21:28:09;8.8;;;5.6;;
45314;SDS011;31051;51.540;5.852;2024-01-16T21:40:44;7.4;;;5.3;;
45314;SDS011;31051;51.540;5.852;2024-01-16T21:53:20;9.5;;;5.9;;
45314;SDS011;31051;51.540;5.852;2024-01-16T22:05:56;8.0;;;5.7;;
45314;SDS011;31051;51.540;5.852;2024-01-16T22:18:31;8.1;;;5.4;;
45314;SDS011;31051;51.540;5.852;2024-01-16T22:31:07;9.1;;;5.8;;
45314;SDS011;31051;51.540;5.852;2024-01-16T22:43:43;7.9;;;5.7;;
45314;SDS011;31051;51.540;5.852;2024-01-16T22:56:18;7.9;;;5.6;;
45314;SDS011;31051;51.540;5.852;2024-01-16T23:08:54;8.5;;;5.8;;
45314;SDS011;31051;51.540;5.852;2024-01-16T23:21:30;8.8;;;6.0;;
45314;SDS011;31051;51.540;5.852;2024-01-16T23:34:05;8.3;;;6.0;;
45314;SDS011;31051;51.540;5.852;2024-01-16T23:46:41;9.0;;;6.1;;
45314;SDS011;31051;51.540;5.852;2024-01-16T23:59:16;8.8;;;5.8;;
